.
WxDataArchive / Data Records for 2008-06-04
2008-06-03 June 2008 2008-06-05

Data Records for Wednesday, 04 June 2008

Time	Temp	Chill	HIndex	Humid	Dewpt	 Wind 	HiWind	WindDir	Rain 	Barom 
-----	----	-----	------	-----	-----	------	------	-------	-----	----- 
00:00	67.3	67.3	67.3	95	65.8	2	4	90	0.00	29.602 
00:05	67.3	67.3	67.3	95	65.8	2	4	90	0.00	29.600 
00:10	67.1	67.1	67.1	95	65.6	2	5	112	0.00	29.597 
00:15	67.1	67.1	67.1	95	65.6	3	6	112	0.00	29.597 
00:20	67.1	67.1	67.1	95	65.6	2	4	112	0.00	29.596 
00:25	67.1	67.1	67.1	95	65.6	2	4	112	0.00	29.592 
00:30	67.1	67.1	67.1	96	65.9	2	5	112	0.00	29.590 
00:35	66.9	66.9	66.9	96	65.7	2	4	112	0.00	29.592 
00:40	66.9	66.9	66.9	96	65.7	1	4	90	0.00	29.591 
00:45	66.9	66.9	66.9	96	65.7	2	4	90	0.00	29.591 
00:50	66.8	66.8	66.8	96	65.6	1	3	90	0.00	29.592 
00:55	66.8	66.8	66.8	96	65.6	1	2	90	0.00	29.594 
01:00	66.8	66.8	66.8	96	65.6	0	2	90	0.00	29.597 
01:05	66.8	66.8	66.8	96	65.6	1	5	90	0.00	29.598 
01:10	66.8	66.8	66.8	96	65.6	1	3	90	0.00	29.604 
01:15	66.8	66.8	66.8	96	65.6	1	3	90	0.01	29.595 
01:20	66.8	66.8	66.8	96	65.6	0	2	90	0.05	29.601 
01:25	66.8	66.8	66.8	96	65.6	0	0	---	0.01	29.610 
01:30	66.8	66.8	66.8	96	65.6	0	0	---	0.01	29.620 
01:35	66.8	66.8	66.8	96	65.6	0	0	---	0.00	29.614 
01:40	66.8	66.8	66.8	96	65.6	0	0	---	0.00	29.607 
01:45	66.8	66.8	66.8	96	65.6	0	2	90	0.00	29.583 
01:50	66.6	66.6	66.6	96	65.4	0	2	90	0.00	29.576 
01:55	66.6	66.6	66.6	96	65.4	0	1	90	0.00	29.576 
02:00	66.4	66.4	66.4	96	65.2	0	2	90	0.00	29.573 
02:05	66.4	66.4	66.4	96	65.2	0	3	90	0.00	29.573 
02:10	66.3	66.3	66.3	96	65.1	0	2	90	0.00	29.576 
02:15	66.3	66.3	66.3	96	65.1	1	4	112	0.00	29.577 
02:20	66.3	66.3	66.3	96	65.1	0	4	112	0.00	29.575 
02:25	66.1	66.1	66.1	96	64.9	1	4	112	0.00	29.573 
02:30	66.1	66.1	66.1	96	64.9	1	4	68	0.00	29.574 
02:35	66.1	66.1	66.1	96	64.9	1	3	68	0.00	29.564 
02:40	66.0	66.0	66.0	96	64.8	0	3	112	0.00	29.560 
02:45	66.0	66.0	66.0	96	64.8	0	2	112	0.00	29.557 
02:50	66.0	66.0	66.0	97	65.1	0	2	112	0.00	29.565 
02:55	65.8	65.8	65.8	97	64.9	1	4	112	0.00	29.561 
03:00	65.8	65.8	65.8	97	64.9	0	2	112	0.00	29.558 
03:05	65.6	65.6	65.6	97	64.7	1	3	112	0.00	29.545 
03:10	65.6	65.6	65.6	97	64.7	1	4	135	0.00	29.546 
03:15	65.5	65.5	65.5	97	64.6	1	3	90	0.00	29.546 
03:20	65.5	65.5	65.5	97	64.6	1	4	90	0.00	29.548 
03:25	65.3	65.3	65.3	97	64.4	1	2	90	0.00	29.550 
03:30	65.2	65.2	65.2	97	64.3	1	3	90	0.00	29.547 
03:35	65.2	65.2	65.2	97	64.3	1	3	90	0.00	29.546 
03:40	65.0	65.0	65.0	97	64.1	1	4	112	0.00	29.548 
03:45	65.0	65.0	65.0	97	64.1	0	2	112	0.00	29.558 
03:50	65.0	65.0	65.0	97	64.1	1	3	112	0.00	29.563 
03:55	65.0	65.0	65.0	97	64.1	0	2	112	0.00	29.565 
04:00	65.0	65.0	65.0	97	64.1	0	2	112	0.00	29.567 
04:05	65.2	65.2	65.2	97	64.3	0	1	112	0.00	29.565 
04:10	65.2	65.2	65.2	97	64.3	0	1	112	0.00	29.564 
04:15	65.0	65.0	65.0	97	64.1	0	3	112	0.00	29.566 
04:20	65.0	65.0	65.0	97	64.1	0	2	112	0.00	29.570 
04:25	65.0	65.0	65.0	97	64.1	0	2	112	0.00	29.570 
04:30	65.0	65.0	65.0	97	64.1	0	1	112	0.00	29.575 
04:35	65.0	65.0	65.0	97	64.1	0	2	112	0.00	29.575 
04:40	65.2	65.2	65.2	97	64.3	0	1	112	0.00	29.571 
04:45	65.2	65.2	65.2	97	64.3	0	1	112	0.00	29.569 
04:50	65.2	65.2	65.2	97	64.3	0	2	112	0.00	29.570 
04:55	65.2	65.2	65.2	97	64.3	2	4	112	0.00	29.562 
05:00	65.2	65.2	65.2	97	64.3	2	5	90	0.00	29.557 
05:05	65.0	65.0	65.0	97	64.1	1	5	90	0.00	29.556 
05:10	65.0	65.0	65.0	97	64.1	0	1	112	0.00	29.555 
05:15	65.2	65.2	65.2	97	64.3	2	4	112	0.00	29.545 
05:20	65.0	65.0	65.0	97	64.1	2	5	90	0.00	29.542 
05:25	65.0	65.0	65.0	97	64.1	2	4	90	0.00	29.542 
05:30	65.0	65.0	65.0	97	64.1	2	5	90	0.00	29.543 
05:35	65.0	65.0	65.0	97	64.1	1	4	112	0.00	29.547 
05:40	65.0	65.0	65.0	97	64.1	1	2	180	0.00	29.557 
05:45	65.2	65.2	65.2	97	64.3	0	2	158	0.00	29.558 
05:50	65.2	65.2	65.2	97	64.3	0	1	158	0.00	29.559 
05:55	65.2	65.2	65.2	97	64.3	0	2	158	0.00	29.557 
06:00	65.3	65.3	65.3	97	64.4	0	1	158	0.00	29.556 
06:05	65.3	65.3	65.3	97	64.4	1	3	158	0.00	29.549 
06:10	65.3	65.3	65.3	97	64.4	0	1	135	0.00	29.551 
06:15	65.3	65.3	65.3	97	64.4	0	1	135	0.00	29.547 
06:20	65.5	65.5	65.5	97	64.6	0	1	135	0.00	29.545 
06:25	65.5	65.5	65.5	97	64.6	0	1	135	0.00	29.543 
06:30	65.6	65.6	65.6	97	64.7	0	1	135	0.00	29.539 
06:35	65.6	65.6	65.6	97	64.7	0	2	135	0.00	29.534 
06:40	65.8	65.8	65.8	97	64.9	1	3	90	0.00	29.525 
06:45	66.0	66.0	66.0	97	65.1	1	2	90	0.00	29.518 
06:50	66.0	66.0	66.0	98	65.4	1	3	90	0.00	29.514 
06:55	66.1	66.1	66.1	98	65.5	2	5	112	0.00	29.511 
07:00	66.3	66.3	66.3	98	65.7	1	3	112	0.00	29.514 
07:05	66.3	66.3	66.3	98	65.7	0	2	112	0.00	29.523 
07:10	66.3	66.3	66.3	98	65.7	0	1	112	0.00	29.524 
07:15	66.4	66.4	66.4	98	65.8	0	1	112	0.00	29.527 
07:20	66.6	66.6	66.6	98	66.0	0	1	112	0.00	29.525 
07:25	66.6	66.6	66.6	98	66.0	0	1	112	0.00	29.528 
07:30	66.8	66.8	66.8	98	66.2	0	1	112	0.00	29.546 
07:35	66.9	66.9	66.9	98	66.3	0	1	112	0.00	29.545 
07:40	67.1	67.1	67.1	98	66.5	0	2	112	0.00	29.546 
07:45	67.3	67.3	67.3	98	66.7	0	1	112	0.00	29.546 
07:50	67.6	67.6	67.6	98	67.0	0	2	112	0.00	29.547 
07:55	67.6	67.6	67.6	98	67.0	0	2	180	0.00	29.546 
08:00	67.8	67.8	67.8	98	67.2	0	3	225	0.00	29.545 
08:05	67.9	67.9	67.9	98	67.3	0	1	225	0.00	29.549 
08:10	67.8	67.8	67.8	98	67.2	0	1	225	0.00	29.552 
08:15	67.8	67.8	67.8	97	66.9	0	1	225	0.00	29.562 
08:20	67.9	67.9	67.9	97	67.0	0	2	225	0.00	29.562 
08:25	68.8	68.8	68.8	97	67.9	0	1	225	0.00	29.560 
08:30	68.9	68.9	68.9	97	68.0	1	3	225	0.00	29.563 
08:35	69.6	69.6	69.6	97	68.7	0	2	225	0.00	29.567 
08:40	70.1	70.1	70.1	97	69.2	1	2	292	0.00	29.563 
08:45	69.9	69.9	69.9	96	68.7	2	5	270	0.00	29.566 
08:50	69.8	69.8	69.8	95	68.3	1	4	248	0.00	29.566 
08:55	70.3	70.3	70.3	93	68.2	1	2	248	0.00	29.562 
09:00	71.1	71.1	71.1	92	68.7	1	3	248	0.00	29.565 
09:05	71.8	71.8	71.8	86	67.4	1	4	270	0.00	29.562 
09:10	72.5	72.5	72.5	82	66.7	1	3	270	0.00	29.563 
09:15	73.5	73.5	73.5	82	67.7	1	4	90	0.00	29.564 
09:20	74.2	74.2	74.2	78	66.9	1	4	90	0.00	29.562 
09:25	74.2	74.2	74.2	76	66.1	3	7	90	0.00	29.565 
09:30	73.9	73.9	73.9	77	66.2	1	4	90	0.00	29.564 
09:35	73.5	73.5	73.5	79	66.6	1	4	90	0.00	29.570 
09:40	73.2	73.2	73.2	80	66.6	1	2	90	0.00	29.579 
09:45	72.8	72.8	72.8	80	66.3	1	3	248	0.00	29.581 
09:50	72.8	72.8	72.8	80	66.3	1	2	248	0.00	29.579 
09:55	73.0	73.0	73.0	80	66.5	1	3	248	0.00	29.579 
10:00	73.2	73.2	73.2	79	66.3	0	2	248	0.00	29.579 
10:05	73.9	73.9	73.9	78	66.6	1	3	248	0.00	29.585 
10:10	74.6	74.6	74.6	75	66.1	2	4	248	0.00	29.585 
10:15	74.9	74.9	74.9	76	66.8	2	4	270	0.00	29.587 
10:20	75.4	75.4	76.5	76	67.3	1	4	270	0.00	29.587 
10:25	75.8	75.8	77.4	70	65.3	2	5	270	0.00	29.586 
10:30	75.4	75.4	76.9	72	65.7	2	7	270	0.00	29.590 
10:35	75.6	75.6	77.2	71	65.5	2	4	270	0.00	29.590 
10:40	75.6	75.6	77.1	72	65.9	2	6	225	0.00	29.591 
10:45	75.4	75.4	76.9	72	65.7	2	5	270	0.00	29.593 
10:50	75.4	75.4	76.8	73	66.1	2	6	90	0.00	29.593 
10:55	74.7	74.7	74.7	72	65.1	3	10	248	0.00	29.592 
11:00	74.9	74.9	74.9	73	65.6	2	6	270	0.00	29.591 
11:05	75.1	75.1	76.2	76	67.0	1	6	225	0.00	29.591 
11:10	75.4	75.4	76.8	73	66.1	1	4	112	0.00	29.591 
11:15	75.6	75.6	77.0	73	66.3	1	5	270	0.00	29.588 
11:20	75.3	75.3	76.7	73	66.0	2	6	270	0.00	29.589 
11:25	75.1	75.1	76.6	72	65.4	2	7	248	0.00	29.589 
11:30	75.1	75.1	76.4	74	66.2	2	6	270	0.00	29.590 
11:35	75.1	75.1	76.6	72	65.4	2	9	270	0.00	29.589 
11:40	75.3	75.3	76.8	72	65.6	2	6	248	0.00	29.590 
11:45	75.3	75.3	76.9	71	65.2	2	5	248	0.00	29.589 
11:50	75.6	75.6	77.1	72	65.9	2	4	248	0.00	29.588 
11:55	76.0	76.0	77.5	72	66.3	2	4	292	0.00	29.589 
12:00	76.5	76.5	78.2	70	66.0	2	6	270	0.00	29.589 
12:05	76.8	76.8	78.6	69	65.8	1	3	270	0.00	29.587 
12:10	77.0	77.0	78.8	68	65.6	1	6	248	0.00	29.587 
12:15	77.2	77.2	79.0	71	67.0	1	3	248	0.00	29.587 
12:20	77.0	77.0	78.8	68	65.6	2	5	270	0.00	29.586 
12:25	77.2	77.2	79.0	69	66.2	1	4	248	0.00	29.588 
12:30	77.2	77.2	79.0	69	66.2	2	5	248	0.00	29.587 
12:35	77.2	77.2	79.0	70	66.6	1	4	248	0.00	29.588 
12:40	77.4	77.4	79.2	69	66.4	2	6	248	0.00	29.588 
12:45	77.4	77.4	79.2	69	66.4	1	3	270	0.00	29.587 
12:50	77.6	77.6	79.5	70	67.0	2	6	270	0.00	29.587 
12:55	77.9	77.9	79.9	71	67.7	1	3	248	0.00	29.586 
13:00	78.6	78.6	80.7	68	67.1	1	5	248	0.00	29.582 
13:05	78.8	78.8	80.9	66	66.5	2	4	270	0.00	29.584 
13:10	79.0	79.0	81.0	65	66.2	2	4	270	0.00	29.585 
13:15	79.6	79.6	81.6	63	65.9	1	5	270	0.00	29.586 
13:20	79.9	79.9	82.0	63	66.2	1	4	248	0.00	29.583 
13:25	79.8	79.8	82.0	64	66.5	1	4	270	0.00	29.585 
13:30	79.9	79.9	81.9	62	65.7	1	3	292	0.00	29.583 
13:35	80.1	80.1	82.3	63	66.3	1	3	0	0.00	29.582 
13:40	80.7	80.7	83.1	63	66.9	0	2	270	0.00	29.576 
13:45	81.2	81.2	83.8	63	67.4	1	4	248	0.00	29.577 
13:50	81.6	81.6	84.4	63	67.8	1	3	135	0.00	29.571 
13:55	81.4	81.4	84.1	63	67.6	2	4	270	0.00	29.575 
14:00	80.7	80.7	83.1	63	66.9	1	2	248	0.00	29.576 
14:05	81.1	81.1	83.5	62	66.8	1	3	248	0.00	29.574 
14:10	81.1	81.1	83.3	61	66.4	1	3	292	0.00	29.574 
14:15	80.9	80.9	83.1	61	66.2	1	3	248	0.00	29.578 
14:20	80.5	80.5	82.8	63	66.7	1	3	248	0.00	29.581 
14:25	80.5	80.5	82.7	62	66.3	0	3	248	0.00	29.583 
14:30	80.5	80.5	82.8	63	66.7	1	6	248	0.00	29.586 
14:35	80.5	80.5	82.9	64	67.2	1	3	248	0.00	29.587 
14:40	80.5	80.5	82.8	63	66.7	1	2	225	0.00	29.588 
14:45	81.2	81.2	83.8	63	67.4	2	4	248	0.00	29.588 
14:50	81.6	81.6	84.4	63	67.8	1	3	270	0.00	29.587 
14:55	82.0	82.0	84.6	61	67.2	1	4	270	0.00	29.585 
15:00	81.6	81.6	84.0	61	66.8	2	4	270	0.00	29.584 
15:05	81.6	81.6	83.7	59	65.9	1	3	270	0.00	29.585 
15:10	81.1	81.1	83.5	62	66.8	1	4	248	0.00	29.587 
15:15	81.4	81.4	84.1	63	67.6	1	3	270	0.00	29.588 
15:20	81.4	81.4	83.4	59	65.7	1	4	248	0.00	29.587 
15:25	81.1	81.1	83.3	61	66.4	2	5	270	0.00	29.589 
15:30	80.5	80.5	82.7	62	66.3	1	3	248	0.00	29.586 
15:35	80.5	80.5	82.8	63	66.7	1	3	225	0.00	29.587 
15:40	80.9	80.9	83.2	62	66.6	1	4	248	0.00	29.586 
15:45	80.5	80.5	82.7	62	66.3	1	4	270	0.00	29.586 
15:50	80.3	80.3	82.7	64	67.0	1	3	270	0.00	29.588 
15:55	80.5	80.5	82.8	63	66.7	1	3	270	0.00	29.588 
16:00	80.3	80.3	82.3	61	65.6	1	3	292	0.00	29.587 
16:05	80.1	80.1	82.0	61	65.4	1	3	270	0.00	29.588 
16:10	79.9	79.9	81.9	62	65.7	1	3	270	0.00	29.592 
16:15	79.9	79.9	82.0	63	66.2	1	7	225	0.00	29.599 
16:20	79.9	79.9	82.1	64	66.6	1	5	225	0.00	29.608 
16:25	79.9	79.9	82.0	63	66.2	1	3	225	0.00	29.606 
16:30	79.8	79.8	81.9	63	66.1	1	3	248	0.00	29.611 
16:35	79.6	79.6	81.6	63	65.9	2	4	270	0.00	29.617 
16:40	79.4	79.4	81.5	64	66.1	1	5	248	0.00	29.619 
16:45	79.2	79.2	81.2	64	65.9	1	5	248	0.00	29.618 
16:50	79.2	79.2	81.2	64	65.9	0	2	248	0.00	29.617 
16:55	79.6	79.6	81.8	65	66.8	0	4	248	0.00	29.615 
17:00	79.8	79.8	82.1	65	67.0	0	2	248	0.00	29.612 
17:05	80.1	80.1	82.4	64	66.8	0	1	248	0.00	29.606 
17:10	80.5	80.5	82.9	64	67.2	0	1	248	0.00	29.609 
17:15	81.1	81.1	83.0	59	65.4	1	4	248	0.00	29.613 
17:20	81.2	81.2	83.0	58	65.0	1	3	225	0.00	29.615 
17:25	81.4	81.4	83.6	60	66.2	0	2	225	0.00	29.613 
17:30	81.8	81.8	83.6	57	65.0	1	4	225	0.00	29.611 
17:35	82.0	82.0	84.1	58	65.7	1	3	248	0.00	29.609 
17:40	82.0	82.0	83.7	56	64.7	1	3	248	0.00	29.605 
17:45	81.8	81.8	84.0	59	66.0	0	1	248	0.00	29.603 
17:50	81.6	81.6	83.9	60	66.3	0	1	248	0.00	29.607 
17:55	81.4	81.4	83.8	61	66.6	0	2	248	0.00	29.611 
18:00	81.2	81.2	83.6	62	66.9	0	1	248	0.00	29.609 
18:05	81.1	81.1	83.5	62	66.8	0	2	248	0.00	29.609 
18:10	81.1	81.1	83.3	61	66.4	0	2	248	0.00	29.604 
18:15	80.9	80.9	83.1	61	66.2	0	2	248	0.00	29.603 
18:20	80.9	80.9	83.2	62	66.6	0	1	180	0.00	29.604 
18:25	80.9	80.9	83.2	62	66.6	0	1	180	0.00	29.611 
18:30	80.7	80.7	83.1	63	66.9	1	4	90	0.00	29.614 
18:35	80.7	80.7	83.1	63	66.9	1	3	90	0.00	29.616 
18:40	80.5	80.5	82.9	64	67.2	1	4	112	0.00	29.619 
18:45	80.3	80.3	82.8	65	67.4	1	4	112	0.00	29.620 
18:50	80.1	80.1	82.5	65	67.2	1	3	112	0.00	29.619 
18:55	79.8	79.8	82.2	66	67.4	1	4	90	0.00	29.617 
19:00	79.6	79.6	82.0	67	67.7	1	4	112	0.00	29.616 
19:05	79.4	79.4	81.8	68	67.9	1	3	112	0.00	29.616 
19:10	79.4	79.4	81.8	68	67.9	1	3	112	0.00	29.619 
19:15	79.2	79.2	81.5	68	67.7	1	3	135	0.00	29.620 
19:20	79.0	79.0	81.3	69	67.9	1	4	112	0.00	29.622 
19:25	79.0	79.0	81.3	69	67.9	1	3	202	0.00	29.626 
19:30	78.8	78.8	81.1	70	68.2	1	3	90	0.00	29.629 
19:35	78.6	78.6	80.8	70	68.0	0	1	90	0.00	29.631 
19:40	78.5	78.5	80.8	71	68.3	0	2	68	0.00	29.632 
19:45	78.1	78.1	80.2	71	67.9	1	5	270	0.00	29.632 
19:50	77.9	77.9	79.9	72	68.1	0	3	112	0.00	29.633 
19:55	77.7	77.7	79.7	72	67.9	0	3	112	0.00	29.633 
20:00	77.4	77.4	79.3	73	68.0	0	1	158	0.00	29.635 
20:05	77.2	77.2	79.0	73	67.9	0	2	225	0.00	29.636 
20:10	77.0	77.0	78.7	74	68.1	0	1	225	0.00	29.643 
20:15	76.8	76.8	78.4	74	67.9	0	1	225	0.00	29.646 
20:20	76.8	76.8	78.4	75	68.3	0	1	225	0.00	29.647 
20:25	76.8	76.8	78.4	75	68.3	0	2	225	0.00	29.647 
20:30	76.7	76.7	78.3	74	67.8	0	1	225	0.00	29.648 
20:35	76.7	76.7	78.3	75	68.2	0	1	225	0.00	29.650 
20:40	76.7	76.7	78.3	75	68.2	0	2	225	0.00	29.653 
20:45	76.7	76.7	78.3	75	68.2	0	2	225	0.00	29.660 
20:50	76.7	76.7	78.3	75	68.2	0	1	225	0.00	29.662 
20:55	76.5	76.5	78.0	76	68.4	0	2	225	0.00	29.664 
21:00	76.3	76.3	77.7	76	68.2	0	1	225	0.00	29.673 
21:05	76.1	76.1	77.4	77	68.3	0	1	225	0.00	29.678 
21:10	76.0	76.0	77.2	77	68.3	0	2	225	0.00	29.679 
21:15	75.8	75.8	76.9	78	68.4	0	2	225	0.00	29.681 
21:20	75.6	75.6	76.6	78	68.2	0	1	225	0.00	29.682 
21:25	75.8	75.8	76.9	78	68.4	1	3	248	0.00	29.679 
21:30	75.8	75.8	76.9	78	68.4	0	3	248	0.00	29.677 
21:35	75.8	75.8	76.9	78	68.4	0	2	112	0.00	29.671 
21:40	75.8	75.8	76.8	79	68.8	0	1	112	0.00	29.668 
21:45	75.8	75.8	76.8	79	68.8	0	2	112	0.00	29.677 
21:50	75.6	75.6	76.5	79	68.6	0	2	112	0.00	29.678 
21:55	75.4	75.4	76.1	80	68.8	0	2	135	0.00	29.679 
22:00	75.3	75.3	76.0	80	68.7	0	1	135	0.00	29.685 
22:05	75.1	75.1	75.6	81	68.9	0	1	135	0.00	29.682 
22:10	75.1	75.1	75.6	81	68.9	0	2	135	0.00	29.681 
22:15	75.1	75.1	75.7	80	68.5	0	2	270	0.00	29.679 
22:20	75.1	75.1	75.7	80	68.5	0	1	270	0.00	29.680 
22:25	75.1	75.1	75.7	80	68.5	0	1	270	0.00	29.678 
22:30	75.1	75.1	75.7	80	68.5	0	1	270	0.00	29.670 
22:35	75.1	75.1	75.7	80	68.5	0	2	248	0.00	29.667 
22:40	74.9	74.9	74.9	80	68.3	0	1	248	0.00	29.672 
22:45	74.9	74.9	74.9	80	68.3	0	1	248	0.00	29.675 
22:50	74.7	74.7	74.7	80	68.1	0	1	248	0.00	29.673 
22:55	74.6	74.6	74.6	80	68.0	0	1	248	0.00	29.665 
23:00	74.6	74.6	74.6	80	68.0	0	1	248	0.00	29.670 
23:05	74.4	74.4	74.4	80	67.8	0	1	248	0.00	29.676 
23:10	74.2	74.2	74.2	81	68.0	0	1	248	0.00	29.690 
23:15	74.2	74.2	74.2	81	68.0	0	1	248	0.00	29.690 
23:20	74.0	74.0	74.0	81	67.8	0	1	248	0.00	29.691 
23:25	73.9	73.9	73.9	81	67.7	0	1	248	0.00	29.687 
23:30	73.9	73.9	73.9	81	67.7	0	1	248	0.00	29.683 
23:35	73.7	73.7	73.7	82	67.9	0	1	248	0.00	29.692 
23:40	73.5	73.5	73.5	82	67.7	0	1	248	0.00	29.690 
23:45	73.3	73.3	73.3	82	67.5	0	1	248	0.00	29.688 
23:50	73.3	73.3	73.3	83	67.8	0	1	248	0.00	29.687 
23:55	73.2	73.2	73.2	82	67.4	0	1	248	0.00	29.684 

CoCoRaHS
IN-AL-39
A2 Web Hosting
Creative Commons License
GoDaddy
Look for:

loaded 2017-12-12 15:10:47 • last modified 2010-11-18 10:43:29
Privacy PolicyDisclaimer
• wx.awcolley.com is powered by PmWiki v.2002016 •
• all content (unless otherwise noted) © 2017 A W Colley